sensor_id;sensor_type;location;lat;lon;timestamp;pressure;altitude;pressure_sealevel;temperature;humidity
44349;BME280;30068;50.986;4.564;2023-06-04T00:01:39;102077.38;;;24.66;41.62
44349;BME280;30068;50.986;4.564;2023-06-04T00:04:04;102068.31;;;24.65;41.57
44349;BME280;30068;50.986;4.564;2023-06-04T00:06:29;102075.03;;;24.63;41.54
44349;BME280;30068;50.986;4.564;2023-06-04T00:08:54;102064.28;;;24.61;41.50
44349;BME280;30068;50.986;4.564;2023-06-04T00:11:20;102065.13;;;24.62;41.92
44349;BME280;30068;50.986;4.564;2023-06-04T00:13:45;102068.06;;;24.60;41.53
44349;BME280;30068;50.986;4.564;2023-06-04T00:16:10;102062.59;;;24.60;41.38
44349;BME280;30068;50.986;4.564;2023-06-04T00:18:36;102056.47;;;24.58;41.53
44349;BME280;30068;50.986;4.564;2023-06-04T00:21:01;102059.19;;;24.58;41.74
44349;BME280;30068;50.986;4.564;2023-06-04T00:23:26;102058.34;;;24.58;41.64
44349;BME280;30068;50.986;4.564;2023-06-04T00:25:51;102057.50;;;24.57;41.49
44349;BME280;30068;50.986;4.564;2023-06-04T00:28:17;102059.38;;;24.57;41.42
44349;BME280;30068;50.986;4.564;2023-06-04T00:30:42;102051.41;;;24.55;41.81
44349;BME280;30068;50.986;4.564;2023-06-04T00:33:07;102055.16;;;24.54;41.98
44349;BME280;30068;50.986;4.564;2023-06-04T00:35:32;102051.59;;;24.54;41.78
44349;BME280;30068;50.986;4.564;2023-06-04T00:37:58;102063.53;;;24.53;41.89
44349;BME280;30068;50.986;4.564;2023-06-04T00:40:23;102057.22;;;24.52;41.79
44349;BME280;30068;50.986;4.564;2023-06-04T00:42:48;102054.50;;;24.52;41.49
44349;BME280;30068;50.986;4.564;2023-06-04T00:45:14;102060.97;;;24.51;41.46
44349;BME280;30068;50.986;4.564;2023-06-04T00:47:40;102051.09;;;24.50;41.88
44349;BME280;30068;50.986;4.564;2023-06-04T00:50:06;102054.88;;;24.49;41.73
44349;BME280;30068;50.986;4.564;2023-06-04T00:52:32;102056.78;;;24.49;41.84
44349;BME280;30068;50.986;4.564;2023-06-04T00:54:57;102054.03;;;24.49;41.73
44349;BME280;30068;50.986;4.564;2023-06-04T00:57:23;102052.34;;;24.48;41.44
44349;BME280;30068;50.986;4.564;2023-06-04T00:59:48;102047.06;;;24.46;41.82
44349;BME280;30068;50.986;4.564;2023-06-04T01:02:15;102058.81;;;24.47;41.83
44349;BME280;30068;50.986;4.564;2023-06-04T01:07:20;102042.81;;;24.44;41.89
44349;BME280;30068;50.986;4.564;2023-06-04T01:09:46;102052.06;;;24.43;41.68
44349;BME280;30068;50.986;4.564;2023-06-04T01:12:12;102049.34;;;24.43;41.42
44349;BME280;30068;50.986;4.564;2023-06-04T01:14:37;102056.66;;;24.42;41.83
44349;BME280;30068;50.986;4.564;2023-06-04T01:17:07;102060.44;;;24.41;41.71
44349;BME280;30068;50.986;4.564;2023-06-04T01:22:22;102058.72;;;24.40;41.67
44349;BME280;30068;50.986;4.564;2023-06-04T01:24:51;102058.72;;;24.40;41.54
44349;BME280;30068;50.986;4.564;2023-06-04T01:27:17;102056.19;;;24.38;41.60
44349;BME280;30068;50.986;4.564;2023-06-04T01:29:44;102060.78;;;24.38;41.65
44349;BME280;30068;50.986;4.564;2023-06-04T01:32:10;102057.41;;;24.36;41.75
44349;BME280;30068;50.986;4.564;2023-06-04T01:34:45;102059.94;;;24.37;41.62
44349;BME280;30068;50.986;4.564;2023-06-04T01:37:10;102064.53;;;24.37;41.69
44349;BME280;30068;50.986;4.564;2023-06-04T01:39:36;102057.59;;;24.34;41.42
44349;BME280;30068;50.986;4.564;2023-06-04T01:42:01;102066.63;;;24.35;41.35
44349;BME280;30068;50.986;4.564;2023-06-04T01:44:27;102061.19;;;24.35;41.79
44349;BME280;30068;50.986;4.564;2023-06-04T01:46:52;102064.94;;;24.34;41.25
44349;BME280;30068;50.986;4.564;2023-06-04T01:49:18;102054.19;;;24.32;41.56
44349;BME280;30068;50.986;4.564;2023-06-04T01:51:43;102052.69;;;24.30;41.76
44349;BME280;30068;50.986;4.564;2023-06-04T01:54:08;102050.16;;;24.28;41.43
44349;BME280;30068;50.986;4.564;2023-06-04T01:56:33;102057.50;;;24.28;41.39
44349;BME280;30068;50.986;4.564;2023-06-04T01:58:58;102057.50;;;24.28;41.67
44349;BME280;30068;50.986;4.564;2023-06-04T02:01:26;102054.78;;;24.28;41.80
44349;BME280;30068;50.986;4.564;2023-06-04T02:03:51;102051.38;;;24.26;41.62
44349;BME280;30068;50.986;4.564;2023-06-04T02:06:17;102047.63;;;24.27;41.68
44349;BME280;30068;50.986;4.564;2023-06-04T02:08:42;102057.84;;;24.25;41.44
44349;BME280;30068;50.986;4.564;2023-06-04T02:11:08;102051.56;;;24.24;42.06
44349;BME280;30068;50.986;4.564;2023-06-04T02:13:33;102052.59;;;24.23;41.89
44349;BME280;30068;50.986;4.564;2023-06-04T02:15:59;102057.00;;;24.24;41.89
44349;BME280;30068;50.986;4.564;2023-06-04T02:18:24;102052.78;;;24.22;41.46
44349;BME280;30068;50.986;4.564;2023-06-04T02:20:50;102051.94;;;24.21;41.62
44349;BME280;30068;50.986;4.564;2023-06-04T02:23:16;102055.53;;;24.22;41.84
44349;BME280;30068;50.986;4.564;2023-06-04T02:25:42;102052.13;;;24.20;41.79
44349;BME280;30068;50.986;4.564;2023-06-04T02:28:09;102052.13;;;24.20;42.16
44349;BME280;30068;50.986;4.564;2023-06-04T02:30:35;102053.13;;;24.19;41.76
44349;BME280;30068;50.986;4.564;2023-06-04T02:33:00;102063.03;;;24.20;41.70
44349;BME280;30068;50.986;4.564;2023-06-04T02:35:29;102062.19;;;24.19;41.96
44349;BME280;30068;50.986;4.564;2023-06-04T02:37:55;102057.72;;;24.18;41.95
44349;BME280;30068;50.986;4.564;2023-06-04T02:40:22;102062.50;;;24.16;42.12
44349;BME280;30068;50.986;4.564;2023-06-04T02:42:48;102057.91;;;24.17;42.06
44349;BME280;30068;50.986;4.564;2023-06-04T02:45:13;102065.91;;;24.18;42.27
44349;BME280;30068;50.986;4.564;2023-06-04T02:47:38;102061.66;;;24.16;42.09
44349;BME280;30068;50.986;4.564;2023-06-04T02:50:03;102065.44;;;24.15;42.21
44349;BME280;30068;50.986;4.564;2023-06-04T02:52:29;102063.56;;;24.15;42.20
44349;BME280;30068;50.986;4.564;2023-06-04T02:54:55;102069.19;;;24.14;42.22
44349;BME280;30068;50.986;4.564;2023-06-04T02:57:20;102066.47;;;24.14;42.06
44349;BME280;30068;50.986;4.564;2023-06-04T02:59:46;102060.34;;;24.12;42.08
44349;BME280;30068;50.986;4.564;2023-06-04T03:02:11;102064.78;;;24.13;42.05
44349;BME280;30068;50.986;4.564;2023-06-04T03:04:37;102069.56;;;24.11;42.18
44349;BME280;30068;50.986;4.564;2023-06-04T03:07:02;102071.25;;;24.12;42.24
44349;BME280;30068;50.986;4.564;2023-06-04T03:09:28;102068.72;;;24.10;42.12
44349;BME280;30068;50.986;4.564;2023-06-04T03:11:54;102070.59;;;24.10;42.11
44349;BME280;30068;50.986;4.564;2023-06-04T03:14:20;102069.94;;;24.08;41.95
44349;BME280;30068;50.986;4.564;2023-06-04T03:16:46;102059.22;;;24.06;42.52
44349;BME280;30068;50.986;4.564;2023-06-04T03:19:11;102060.06;;;24.07;42.13
44349;BME280;30068;50.986;4.564;2023-06-04T03:21:36;102068.41;;;24.05;42.22
44349;BME280;30068;50.986;4.564;2023-06-04T03:24:04;102063.16;;;24.03;42.23
44349;BME280;30068;50.986;4.564;2023-06-04T03:26:29;102058.53;;;24.04;42.45
44349;BME280;30068;50.986;4.564;2023-06-04T03:28:55;102060.41;;;24.03;42.21
44349;BME280;30068;50.986;4.564;2023-06-04T03:31:20;102064.00;;;24.04;42.44
44349;BME280;30068;50.986;4.564;2023-06-04T03:33:45;102061.44;;;24.02;42.17
44349;BME280;30068;50.986;4.564;2023-06-04T03:36:10;102064.38;;;24.01;42.00
44349;BME280;30068;50.986;4.564;2023-06-04T03:38:36;102061.84;;;23.99;42.58
44349;BME280;30068;50.986;4.564;2023-06-04T03:41:01;102060.31;;;23.97;42.65
44349;BME280;30068;50.986;4.564;2023-06-04T03:43:26;102067.28;;;23.99;42.43
44349;BME280;30068;50.986;4.564;2023-06-04T03:45:51;102062.84;;;23.98;42.14
44349;BME280;30068;50.986;4.564;2023-06-04T03:48:16;102063.88;;;23.97;42.29
44349;BME280;30068;50.986;4.564;2023-06-04T03:50:42;102066.78;;;23.96;42.59
44349;BME280;30068;50.986;4.564;2023-06-04T03:53:07;102071.41;;;23.95;42.46
44349;BME280;30068;50.986;4.564;2023-06-04T03:55:33;102071.41;;;23.95;42.25
44349;BME280;30068;50.986;4.564;2023-06-04T03:58:00;102071.78;;;23.92;42.62
44349;BME280;30068;50.986;4.564;2023-06-04T04:00:25;102066.31;;;23.92;42.78
44349;BME280;30068;50.986;4.564;2023-06-04T04:02:51;102071.28;;;23.89;42.91
44349;BME280;30068;50.986;4.564;2023-06-04T04:05:16;102068.56;;;23.89;42.92
44349;BME280;30068;50.986;4.564;2023-06-04T04:07:42;102064.63;;;23.91;42.58
44349;BME280;30068;50.986;4.564;2023-06-04T04:10:07;102070.44;;;23.88;42.59
44349;BME280;30068;50.986;4.564;2023-06-04T04:12:32;102074.81;;;23.52;43.87
44349;BME280;30068;50.986;4.564;2023-06-04T04:14:57;102081.72;;;23.62;43.95
44349;BME280;30068;50.986;4.564;2023-06-04T04:17:23;102074.22;;;23.65;43.85
44349;BME280;30068;50.986;4.564;2023-06-04T04:19:48;102069.13;;;23.61;44.09
44349;BME280;30068;50.986;4.564;2023-06-04T04:22:13;102074.50;;;23.70;43.95
44349;BME280;30068;50.986;4.564;2023-06-04T04:24:42;102075.19;;;23.72;44.25
44349;BME280;30068;50.986;4.564;2023-06-04T04:27:08;102071.91;;;23.76;43.95
44349;BME280;30068;50.986;4.564;2023-06-04T04:29:35;102064.88;;;23.82;44.29
44349;BME280;30068;50.986;4.564;2023-06-04T04:32:02;102072.88;;;23.83;44.16
44349;BME280;30068;50.986;4.564;2023-06-04T04:34:35;102074.00;;;23.89;44.26
44349;BME280;30068;50.986;4.564;2023-06-04T04:37:02;102074.22;;;23.87;44.27
44349;BME280;30068;50.986;4.564;2023-06-04T04:39:28;102070.75;;;23.93;44.07
44349;BME280;30068;50.986;4.564;2023-06-04T04:41:54;102074.78;;;23.97;44.12
44349;BME280;30068;50.986;4.564;2023-06-04T04:44:19;102076.84;;;23.95;44.14
44349;BME280;30068;50.986;4.564;2023-06-04T04:46:44;102077.53;;;23.97;44.33
44349;BME280;30068;50.986;4.564;2023-06-04T04:49:10;102083.25;;;24.02;44.36
44349;BME280;30068;50.986;4.564;2023-06-04T04:51:35;102086.66;;;24.05;44.34
44349;BME280;30068;50.986;4.564;2023-06-04T04:54:01;102090.06;;;24.07;44.26
44349;BME280;30068;50.986;4.564;2023-06-04T04:56:27;102080.47;;;24.11;44.36
44349;BME280;30068;50.986;4.564;2023-06-04T04:58:52;102087.63;;;24.12;44.18
44349;BME280;30068;50.986;4.564;2023-06-04T05:01:18;102086.22;;;24.16;44.35
44349;BME280;30068;50.986;4.564;2023-06-04T05:03:43;102084.53;;;24.15;44.04
44349;BME280;30068;50.986;4.564;2023-06-04T05:06:08;102095.44;;;24.15;44.41
44349;BME280;30068;50.986;4.564;2023-06-04T05:08:33;102088.75;;;24.17;44.24
44349;BME280;30068;50.986;4.564;2023-06-04T05:10:59;102085.19;;;24.17;44.29
44349;BME280;30068;50.986;4.564;2023-06-04T05:13:24;102088.59;;;24.19;44.49
44349;BME280;30068;50.986;4.564;2023-06-04T05:15:49;102090.13;;;24.21;44.12
44349;BME280;30068;50.986;4.564;2023-06-04T05:18:17;102088.44;;;24.20;44.56
44349;BME280;30068;50.986;4.564;2023-06-04T05:20:45;102089.56;;;24.26;44.52
44349;BME280;30068;50.986;4.564;2023-06-04T05:23:10;102094.75;;;24.21;44.30
44349;BME280;30068;50.986;4.564;2023-06-04T05:25:37;102093.31;;;24.25;44.11
44349;BME280;30068;50.986;4.564;2023-06-04T05:28:02;102088.72;;;24.25;44.16
44349;BME280;30068;50.986;4.564;2023-06-04T05:30:28;102086.84;;;24.26;44.63
44349;BME280;30068;50.986;4.564;2023-06-04T05:32:53;102092.28;;;24.26;44.54
44349;BME280;30068;50.986;4.564;2023-06-04T05:35:18;102090.41;;;24.26;44.34
44349;BME280;30068;50.986;4.564;2023-06-04T05:37:44;102093.25;;;24.33;44.05
44349;BME280;30068;50.986;4.564;2023-06-04T05:40:11;102088.16;;;24.30;44.07
44349;BME280;30068;50.986;4.564;2023-06-04T05:42:36;102092.56;;;24.31;44.29
44349;BME280;30068;50.986;4.564;2023-06-04T05:45:02;102092.56;;;24.31;44.39
44349;BME280;30068;50.986;4.564;2023-06-04T05:47:28;102093.59;;;24.30;44.46
44349;BME280;30068;50.986;4.564;2023-06-04T05:49:56;102088.81;;;24.32;44.11
44349;BME280;30068;50.986;4.564;2023-06-04T05:52:22;102090.16;;;24.36;44.31
44349;BME280;30068;50.986;4.564;2023-06-04T05:54:47;102086.75;;;24.34;44.42
44349;BME280;30068;50.986;4.564;2023-06-04T05:57:12;102091.19;;;24.35;44.48
44349;BME280;30068;50.986;4.564;2023-06-04T05:59:37;102095.97;;;24.33;44.21
44349;BME280;30068;50.986;4.564;2023-06-04T06:02:03;102096.34;;;24.30;44.39
44349;BME280;30068;50.986;4.564;2023-06-04T06:04:28;102100.47;;;24.26;44.67
44349;BME280;30068;50.986;4.564;2023-06-04T06:06:53;102105.59;;;24.29;44.69
44349;BME280;30068;50.986;4.564;2023-06-04T06:09:19;102104.72;;;24.28;44.32
44349;BME280;30068;50.986;4.564;2023-06-04T06:11:44;102105.28;;;24.38;44.45
44349;BME280;30068;50.986;4.564;2023-06-04T06:14:09;102112.16;;;24.34;44.44
44349;BME280;30068;50.986;4.564;2023-06-04T06:16:35;102112.81;;;24.36;44.70
44349;BME280;30068;50.986;4.564;2023-06-04T06:19:00;102108.31;;;24.29;44.32
44349;BME280;30068;50.986;4.564;2023-06-04T06:21:26;102105.94;;;24.26;44.33
44349;BME280;30068;50.986;4.564;2023-06-04T06:23:52;102104.25;;;24.25;44.47
44349;BME280;30068;50.986;4.564;2023-06-04T06:26:17;102110.38;;;24.27;44.46
44349;BME280;30068;50.986;4.564;2023-06-04T06:28:44;102108.94;;;24.31;44.85
44349;BME280;30068;50.986;4.564;2023-06-04T06:31:09;102115.75;;;24.35;44.35
44349;BME280;30068;50.986;4.564;2023-06-04T06:33:34;102113.47;;;24.38;44.28
44349;BME280;30068;50.986;4.564;2023-06-04T06:36:00;102113.66;;;24.37;44.43
44349;BME280;30068;50.986;4.564;2023-06-04T06:38:25;102112.06;;;24.28;44.86
44349;BME280;30068;50.986;4.564;2023-06-04T06:40:51;102113.31;;;24.17;44.86
44349;BME280;30068;50.986;4.564;2023-06-04T06:43:16;102113.19;;;24.11;45.40
44349;BME280;30068;50.986;4.564;2023-06-04T06:45:41;102110.09;;;24.22;45.27
44349;BME280;30068;50.986;4.564;2023-06-04T06:48:06;102123.72;;;24.22;45.30
44349;BME280;30068;50.986;4.564;2023-06-04T06:50:31;102122.34;;;24.18;45.30
44349;BME280;30068;50.986;4.564;2023-06-04T06:52:58;102129.56;;;24.11;45.54
44349;BME280;30068;50.986;4.564;2023-06-04T06:55:23;102125.31;;;24.31;44.67
44349;BME280;30068;50.986;4.564;2023-06-04T06:57:48;102134.19;;;24.33;44.96
44349;BME280;30068;50.986;4.564;2023-06-04T07:00:14;102129.63;;;24.25;44.72
44349;BME280;30068;50.986;4.564;2023-06-04T07:02:40;102128.38;;;24.36;44.74
44349;BME280;30068;50.986;4.564;2023-06-04T07:05:06;102122.78;;;24.29;44.84
44349;BME280;30068;50.986;4.564;2023-06-04T07:07:31;102131.09;;;24.36;44.61
44349;BME280;30068;50.986;4.564;2023-06-04T07:09:56;102136.56;;;24.36;45.08
44349;BME280;30068;50.986;4.564;2023-06-04T07:12:22;102143.50;;;24.38;44.77
44349;BME280;30068;50.986;4.564;2023-06-04T07:14:47;102145.81;;;24.50;44.35
44349;BME280;30068;50.986;4.564;2023-06-04T07:17:12;102143.06;;;24.50;44.60
44349;BME280;30068;50.986;4.564;2023-06-04T07:19:37;102140.78;;;24.38;44.58
44349;BME280;30068;50.986;4.564;2023-06-04T07:22:02;102139.19;;;24.44;44.69
44349;BME280;30068;50.986;4.564;2023-06-04T07:24:28;102139.94;;;24.53;43.99
44349;BME280;30068;50.986;4.564;2023-06-04T07:26:53;102137.03;;;24.54;43.89
44349;BME280;30068;50.986;4.564;2023-06-04T07:29:18;102138.63;;;24.49;44.00
44349;BME280;30068;50.986;4.564;2023-06-04T07:31:44;102149.00;;;24.53;44.16
44349;BME280;30068;50.986;4.564;2023-06-04T07:34:09;102139.59;;;24.56;44.19
44349;BME280;30068;50.986;4.564;2023-06-04T07:36:34;102136.97;;;24.62;43.52
44349;BME280;30068;50.986;4.564;2023-06-04T07:39:00;102138.00;;;24.61;43.78
44349;BME280;30068;50.986;4.564;2023-06-04T07:41:25;102132.81;;;24.66;43.92
44349;BME280;30068;50.986;4.564;2023-06-04T07:43:51;102134.69;;;24.66;43.41
44349;BME280;30068;50.986;4.564;2023-06-04T07:46:16;102137.59;;;24.64;43.53
44349;BME280;30068;50.986;4.564;2023-06-04T07:48:43;102132.81;;;24.66;43.90
44349;BME280;30068;50.986;4.564;2023-06-04T07:51:09;102136.75;;;24.64;44.01
44349;BME280;30068;50.986;4.564;2023-06-04T07:53:34;102144.00;;;24.57;43.97
44349;BME280;30068;50.986;4.564;2023-06-04T07:56:00;102140.09;;;24.36;43.94
44349;BME280;30068;50.986;4.564;2023-06-04T07:58:26;102143.47;;;24.24;44.19
44349;BME280;30068;50.986;4.564;2023-06-04T08:00:51;102138.03;;;24.16;44.53
44349;BME280;30068;50.986;4.564;2023-06-04T08:03:16;102139.44;;;24.12;44.69
44349;BME280;30068;50.986;4.564;2023-06-04T08:05:42;102131.66;;;24.09;44.84
44349;BME280;30068;50.986;4.564;2023-06-04T08:08:07;102142.91;;;24.06;44.65
44349;BME280;30068;50.986;4.564;2023-06-04T08:10:32;102130.59;;;24.10;44.87
44349;BME280;30068;50.986;4.564;2023-06-04T08:12:58;102138.31;;;24.06;44.57
44349;BME280;30068;50.986;4.564;2023-06-04T08:15:23;102136.72;;;24.12;45.03
44349;BME280;30068;50.986;4.564;2023-06-04T08:17:48;102134.00;;;24.12;44.79
44349;BME280;30068;50.986;4.564;2023-06-04T08:20:14;102137.47;;;24.28;44.47
44349;BME280;30068;50.986;4.564;2023-06-04T08:22:39;102140.66;;;24.32;44.49
44349;BME280;30068;50.986;4.564;2023-06-04T08:25:05;102147.59;;;24.20;44.56
44349;BME280;30068;50.986;4.564;2023-06-04T08:27:30;102144.47;;;24.23;44.65
44349;BME280;30068;50.986;4.564;2023-06-04T08:29:56;102152.03;;;24.21;44.33
44349;BME280;30068;50.986;4.564;2023-06-04T08:32:22;102155.22;;;24.24;44.73
44349;BME280;30068;50.986;4.564;2023-06-04T08:34:47;102149.13;;;24.22;44.53
44349;BME280;30068;50.986;4.564;2023-06-04T08:37:12;102147.88;;;24.25;44.37
44349;BME280;30068;50.986;4.564;2023-06-04T08:39:38;102151.28;;;24.27;44.52
44349;BME280;30068;50.986;4.564;2023-06-04T08:42:06;102146.19;;;24.24;44.86
44349;BME280;30068;50.986;4.564;2023-06-04T08:44:32;102141.28;;;24.19;44.74
44349;BME280;30068;50.986;4.564;2023-06-04T08:47:01;102146.72;;;24.42;44.31
44349;BME280;30068;50.986;4.564;2023-06-04T08:49:27;102153.84;;;24.43;43.87
44349;BME280;30068;50.986;4.564;2023-06-04T08:51:55;102145.03;;;24.41;44.05
44349;BME280;30068;50.986;4.564;2023-06-04T08:54:21;102143.63;;;24.60;43.63
44349;BME280;30068;50.986;4.564;2023-06-04T08:56:46;102151.72;;;24.53;43.89
44349;BME280;30068;50.986;4.564;2023-06-04T08:59:13;102144.94;;;24.49;44.02
44349;BME280;30068;50.986;4.564;2023-06-04T09:01:39;102150.50;;;24.56;43.59
44349;BME280;30068;50.986;4.564;2023-06-04T09:04:09;102143.34;;;24.55;44.11
44349;BME280;30068;50.986;4.564;2023-06-04T09:06:34;102142.78;;;24.59;43.42
44349;BME280;30068;50.986;4.564;2023-06-04T09:09:02;102147.34;;;24.44;44.03
44349;BME280;30068;50.986;4.564;2023-06-04T09:11:36;102149.38;;;24.65;43.54
44349;BME280;30068;50.986;4.564;2023-06-04T09:14:03;102149.88;;;24.68;43.51
44349;BME280;30068;50.986;4.564;2023-06-04T09:16:31;102145.25;;;24.69;43.56
44349;BME280;30068;50.986;4.564;2023-06-04T09:19:02;102155.31;;;24.68;43.47
44349;BME280;30068;50.986;4.564;2023-06-04T09:21:28;102148.53;;;24.64;43.45
44349;BME280;30068;50.986;4.564;2023-06-04T09:23:53;102149.78;;;24.76;43.45
44349;BME280;30068;50.986;4.564;2023-06-04T09:26:19;102146.00;;;24.77;42.89
44349;BME280;30068;50.986;4.564;2023-06-04T09:28:46;102144.19;;;24.85;43.05
44349;BME280;30068;50.986;4.564;2023-06-04T09:31:17;102158.34;;;24.73;43.14
44349;BME280;30068;50.986;4.564;2023-06-04T09:33:45;102152.19;;;24.71;43.63
44349;BME280;30068;50.986;4.564;2023-06-04T09:36:11;102156.25;;;24.61;43.47
44349;BME280;30068;50.986;4.564;2023-06-04T09:38:36;102146.72;;;24.57;43.98
44349;BME280;30068;50.986;4.564;2023-06-04T09:41:02;102155.59;;;24.73;43.10
44349;BME280;30068;50.986;4.564;2023-06-04T09:43:31;102158.63;;;24.78;43.06
44349;BME280;30068;50.986;4.564;2023-06-04T09:46:07;102147.59;;;24.87;43.21
44349;BME280;30068;50.986;4.564;2023-06-04T09:48:33;102140.44;;;24.86;42.68
44349;BME280;30068;50.986;4.564;2023-06-04T09:51:05;102137.84;;;24.92;42.82
44349;BME280;30068;50.986;4.564;2023-06-04T09:53:31;102141.38;;;24.78;43.28
44349;BME280;30068;50.986;4.564;2023-06-04T09:55:59;102129.81;;;24.91;42.84
44349;BME280;30068;50.986;4.564;2023-06-04T09:58:25;102143.00;;;24.87;42.60
44349;BME280;30068;50.986;4.564;2023-06-04T10:00:52;102143.84;;;24.88;42.81
44349;BME280;30068;50.986;4.564;2023-06-04T10:03:17;102134.63;;;24.89;42.51
44349;BME280;30068;50.986;4.564;2023-06-04T10:05:48;102137.91;;;24.84;43.00
44349;BME280;30068;50.986;4.564;2023-06-04T10:08:14;102138.09;;;24.83;42.68
44349;BME280;30068;50.986;4.564;2023-06-04T10:10:41;102128.75;;;24.77;43.15
44349;BME280;30068;50.986;4.564;2023-06-04T10:13:09;102140.53;;;24.77;42.69
44349;BME280;30068;50.986;4.564;2023-06-04T10:15:40;102136.69;;;24.87;42.64
44349;BME280;30068;50.986;4.564;2023-06-04T10:18:05;102130.19;;;24.88;42.66
44349;BME280;30068;50.986;4.564;2023-06-04T10:20:31;102137.66;;;24.94;42.60
44349;BME280;30068;50.986;4.564;2023-06-04T10:22:56;102140.03;;;24.97;42.73
44349;BME280;30068;50.986;4.564;2023-06-04T10:25:22;102138.75;;;24.85;42.63
44349;BME280;30068;50.986;4.564;2023-06-04T10:27:48;102137.19;;;24.90;42.50
44349;BME280;30068;50.986;4.564;2023-06-04T10:30:15;102132.00;;;24.95;42.22
44349;BME280;30068;50.986;4.564;2023-06-04T10:32:40;102118.91;;;24.91;42.38
44349;BME280;30068;50.986;4.564;2023-06-04T10:35:06;102125.13;;;24.99;42.40
44349;BME280;30068;50.986;4.564;2023-06-04T10:37:33;102122.56;;;24.98;42.54
44349;BME280;30068;50.986;4.564;2023-06-04T10:39:58;102121.94;;;24.96;42.01
44349;BME280;30068;50.986;4.564;2023-06-04T10:42:24;102119.03;;;24.97;42.59
44349;BME280;30068;50.986;4.564;2023-06-04T10:44:50;102120.91;;;24.97;42.62
44349;BME280;30068;50.986;4.564;2023-06-04T10:47:25;102121.94;;;24.96;42.69
44349;BME280;30068;50.986;4.564;2023-06-04T10:49:51;102116.34;;;24.89;42.27
44349;BME280;30068;50.986;4.564;2023-06-04T10:52:16;102120.06;;;24.96;42.13
44349;BME280;30068;50.986;4.564;2023-06-04T10:54:42;102118.16;;;24.97;42.45
44349;BME280;30068;50.986;4.564;2023-06-04T10:57:11;102123.25;;;25.00;42.57
44349;BME280;30068;50.986;4.564;2023-06-04T10:59:37;102125.03;;;24.93;42.23
44349;BME280;30068;50.986;4.564;2023-06-04T11:02:05;102118.63;;;25.00;42.51
44349;BME280;30068;50.986;4.564;2023-06-04T11:04:31;102124.66;;;24.96;42.47
44349;BME280;30068;50.986;4.564;2023-06-04T11:07:03;102120.91;;;24.97;42.38
44349;BME280;30068;50.986;4.564;2023-06-04T11:09:29;102118.81;;;24.99;42.49
44349;BME280;30068;50.986;4.564;2023-06-04T11:11:56;102133.28;;;24.85;42.12
44349;BME280;30068;50.986;4.564;2023-06-04T11:14:21;102116.47;;;24.96;42.00
44349;BME280;30068;50.986;4.564;2023-06-04T11:16:46;102113.06;;;24.94;42.35
44349;BME280;30068;50.986;4.564;2023-06-04T11:19:11;102105.38;;;24.97;42.04
44349;BME280;30068;50.986;4.564;2023-06-04T11:21:37;102106.31;;;24.90;42.55
44349;BME280;30068;50.986;4.564;2023-06-04T11:24:03;102118.16;;;24.97;41.97
44349;BME280;30068;50.986;4.564;2023-06-04T11:26:31;102107.88;;;24.99;41.83
44349;BME280;30068;50.986;4.564;2023-06-04T11:28:57;102106.47;;;25.03;42.17
44349;BME280;30068;50.986;4.564;2023-06-04T11:31:23;102100.72;;;24.98;42.11
44349;BME280;30068;50.986;4.564;2023-06-04T11:33:48;102108.28;;;24.96;41.78
44349;BME280;30068;50.986;4.564;2023-06-04T11:36:26;102112.13;;;25.01;42.13
44349;BME280;30068;50.986;4.564;2023-06-04T11:41:21;102103.34;;;25.06;41.50
44349;BME280;30068;50.986;4.564;2023-06-04T11:43:49;102092.81;;;25.03;41.87
44349;BME280;30068;50.986;4.564;2023-06-04T11:46:15;102102.72;;;25.04;42.12
44349;BME280;30068;50.986;4.564;2023-06-04T11:48:40;102090.53;;;25.06;42.00
44349;BME280;30068;50.986;4.564;2023-06-04T11:51:06;102094.97;;;25.07;42.10
44349;BME280;30068;50.986;4.564;2023-06-04T11:53:33;102085.66;;;25.02;42.16
44349;BME280;30068;50.986;4.564;2023-06-04T11:55:58;102095.75;;;25.01;42.22
44349;BME280;30068;50.986;4.564;2023-06-04T11:58:23;102091.97;;;25.02;42.04
44349;BME280;30068;50.986;4.564;2023-06-04T12:00:49;102090.28;;;25.01;42.14
44349;BME280;30068;50.986;4.564;2023-06-04T12:03:14;102092.81;;;25.03;41.92
44349;BME280;30068;50.986;4.564;2023-06-04T12:05:39;102088.66;;;25.07;42.04
44349;BME280;30068;50.986;4.564;2023-06-04T12:08:05;102077.56;;;25.08;42.00
44349;BME280;30068;50.986;4.564;2023-06-04T12:10:36;102082.34;;;25.06;41.59
44349;BME280;30068;50.986;4.564;2023-06-04T12:13:01;102077.56;;;25.08;41.97
44349;BME280;30068;50.986;4.564;2023-06-04T12:15:26;102085.25;;;25.05;41.98
44349;BME280;30068;50.986;4.564;2023-06-04T12:17:52;102078.59;;;25.07;41.54
44349;BME280;30068;50.986;4.564;2023-06-04T12:20:18;102077.38;;;25.10;42.07
44349;BME280;30068;50.986;4.564;2023-06-04T12:22:45;102075.66;;;25.09;41.80
44349;BME280;30068;50.986;4.564;2023-06-04T12:25:10;102074.81;;;25.08;41.59
44349;BME280;30068;50.986;4.564;2023-06-04T12:27:36;102076.88;;;25.06;42.10
44349;BME280;30068;50.986;4.564;2023-06-04T12:30:11;102072.75;;;25.10;41.99
44349;BME280;30068;50.986;4.564;2023-06-04T12:32:36;102072.75;;;25.10;41.88
44349;BME280;30068;50.986;4.564;2023-06-04T12:35:02;102078.41;;;25.09;42.06
44349;BME280;30068;50.986;4.564;2023-06-04T12:37:27;102066.63;;;25.08;41.62
44349;BME280;30068;50.986;4.564;2023-06-04T12:39:53;102062.56;;;25.04;42.25
44349;BME280;30068;50.986;4.564;2023-06-04T12:42:19;102062.19;;;25.07;41.55
44349;BME280;30068;50.986;4.564;2023-06-04T12:44:45;102057.59;;;25.08;41.98
44349;BME280;30068;50.986;4.564;2023-06-04T12:47:10;102055.50;;;25.10;41.74
44349;BME280;30068;50.986;4.564;2023-06-04T12:49:36;102065.59;;;25.09;41.56
44349;BME280;30068;50.986;4.564;2023-06-04T12:52:02;102065.13;;;25.06;41.58